sensor_id;sensor_type;location;lat;lon;timestamp;pressure;altitude;pressure_sealevel;temperature;humidity
51715;BME280;39115;59.332;18.034;2024-02-16T00:02:02;101431.13;;;2.63;66.20
51715;BME280;39115;59.332;18.034;2024-02-16T00:04:22;101416.19;;;2.64;66.34
51715;BME280;39115;59.332;18.034;2024-02-16T00:06:43;101419.75;;;2.63;65.61
51715;BME280;39115;59.332;18.034;2024-02-16T00:09:03;101416.19;;;2.64;66.18
51715;BME280;39115;59.332;18.034;2024-02-16T00:11:24;101415.34;;;2.63;66.18
51715;BME280;39115;59.332;18.034;2024-02-16T00:13:45;101406.56;;;2.64;66.26
51715;BME280;39115;59.332;18.034;2024-02-16T00:16:06;101407.47;;;2.63;66.11
51715;BME280;39115;59.332;18.034;2024-02-16T00:18:26;101403.13;;;2.62;65.98
51715;BME280;39115;59.332;18.034;2024-02-16T00:20:47;101407.47;;;2.63;66.15
51715;BME280;39115;59.332;18.034;2024-02-16T00:23:07;101409.22;;;2.63;66.06
51715;BME280;39115;59.332;18.034;2024-02-16T00:25:28;101409.22;;;2.63;66.08
51715;BME280;39115;59.332;18.034;2024-02-16T00:27:48;101410.09;;;2.63;65.99
51715;BME280;39115;59.332;18.034;2024-02-16T00:30:09;101401.34;;;2.63;66.06
51715;BME280;39115;59.332;18.034;2024-02-16T00:32:30;101397.88;;;2.62;66.02
51715;BME280;39115;59.332;18.034;2024-02-16T00:34:51;101401.31;;;2.64;66.33
51715;BME280;39115;59.332;18.034;2024-02-16T00:37:14;101395.16;;;2.64;66.14
51715;BME280;39115;59.332;18.034;2024-02-16T00:39:35;101385.56;;;2.63;66.16
51715;BME280;39115;59.332;18.034;2024-02-16T00:41:56;101383.81;;;2.63;65.96
51715;BME280;39115;59.332;18.034;2024-02-16T00:44:17;101382.03;;;2.64;66.24
51715;BME280;39115;59.332;18.034;2024-02-16T00:46:38;101382.94;;;2.63;66.09
51715;BME280;39115;59.332;18.034;2024-02-16T00:48:58;101379.47;;;2.62;66.24
51715;BME280;39115;59.332;18.034;2024-02-16T00:51:19;101375.94;;;2.63;66.15
51715;BME280;39115;59.332;18.034;2024-02-16T00:53:39;101365.47;;;2.62;66.18
51715;BME280;39115;59.332;18.034;2024-02-16T00:56:00;101360.16;;;2.63;66.41
51715;BME280;39115;59.332;18.034;2024-02-16T00:58:20;101342.66;;;2.62;66.17
51715;BME280;39115;59.332;18.034;2024-02-16T01:00:41;101343.50;;;2.63;66.37
51715;BME280;39115;59.332;18.034;2024-02-16T01:03:03;101338.25;;;2.63;66.29
51715;BME280;39115;59.332;18.034;2024-02-16T01:05:24;101344.44;;;2.62;66.13
51715;BME280;39115;59.332;18.034;2024-02-16T01:07:44;101338.25;;;2.63;66.21
51715;BME280;39115;59.332;18.034;2024-02-16T01:10:06;101327.81;;;2.61;66.25
51715;BME280;39115;59.332;18.034;2024-02-16T01:12:27;101322.47;;;2.63;66.20
51715;BME280;39115;59.332;18.034;2024-02-16T01:14:47;101320.78;;;2.62;66.27
51715;BME280;39115;59.332;18.034;2024-02-16T01:17:08;101319.00;;;2.62;66.11
51715;BME280;39115;59.332;18.034;2024-02-16T01:19:28;101312.88;;;2.62;66.15
51715;BME280;39115;59.332;18.034;2024-02-16T01:21:49;101304.16;;;2.61;66.17
51715;BME280;39115;59.332;18.034;2024-02-16T01:24:13;101305.88;;;2.62;66.20
51715;BME280;39115;59.332;18.034;2024-02-16T01:26:33;101303.25;;;2.62;66.11
51715;BME280;39115;59.332;18.034;2024-02-16T01:28:54;101304.06;;;2.63;66.16
51715;BME280;39115;59.332;18.034;2024-02-16T01:31:14;101296.19;;;2.63;66.20
51715;BME280;39115;59.332;18.034;2024-02-16T01:33:36;101294.44;;;2.63;66.34
51715;BME280;39115;59.332;18.034;2024-02-16T01:35:57;101289.19;;;2.63;66.11
51715;BME280;39115;59.332;18.034;2024-02-16T01:38:18;101285.69;;;2.63;65.80
51715;BME280;39115;59.332;18.034;2024-02-16T01:40:39;101282.22;;;2.62;66.13
51715;BME280;39115;59.332;18.034;2024-02-16T01:43:00;101287.47;;;2.62;66.18
51715;BME280;39115;59.332;18.034;2024-02-16T01:45:20;101283.91;;;2.63;66.19
51715;BME280;39115;59.332;18.034;2024-02-16T01:47:43;101283.06;;;2.63;66.21
51715;BME280;39115;59.332;18.034;2024-02-16T01:50:04;101273.47;;;2.62;66.00
51715;BME280;39115;59.332;18.034;2024-02-16T01:52:25;101269.06;;;2.62;66.41
51715;BME280;39115;59.332;18.034;2024-02-16T01:54:46;101271.69;;;2.62;66.08
51715;BME280;39115;59.332;18.034;2024-02-16T01:57:06;101274.31;;;2.62;66.01
51715;BME280;39115;59.332;18.034;2024-02-16T01:59:28;101262.91;;;2.63;66.26
51715;BME280;39115;59.332;18.034;2024-02-16T02:01:49;101246.25;;;2.63;66.11
51715;BME280;39115;59.332;18.034;2024-02-16T02:04:09;101244.50;;;2.63;66.19
51715;BME280;39115;59.332;18.034;2024-02-16T02:06:30;101236.59;;;2.63;66.33
51715;BME280;39115;59.332;18.034;2024-02-16T02:08:50;101239.22;;;2.63;66.21
51715;BME280;39115;59.332;18.034;2024-02-16T02:11:11;101230.56;;;2.61;66.14
51715;BME280;39115;59.332;18.034;2024-02-16T02:13:32;101239.22;;;2.63;66.13
51715;BME280;39115;59.332;18.034;2024-02-16T02:15:53;101233.09;;;2.63;66.36
51715;BME280;39115;59.332;18.034;2024-02-16T02:18:15;101225.22;;;2.63;66.16
51715;BME280;39115;59.332;18.034;2024-02-16T02:20:36;101221.75;;;2.62;66.08
51715;BME280;39115;59.332;18.034;2024-02-16T02:22:56;101219.03;;;2.64;66.26
51715;BME280;39115;59.332;18.034;2024-02-16T02:25:17;101224.31;;;2.64;66.27
51715;BME280;39115;59.332;18.034;2024-02-16T02:27:38;101206.81;;;2.63;66.18
51715;BME280;39115;59.332;18.034;2024-02-16T02:29:58;101200.72;;;2.62;66.30
51715;BME280;39115;59.332;18.034;2024-02-16T02:32:19;101195.47;;;2.62;66.04
51715;BME280;39115;59.332;18.034;2024-02-16T02:34:39;101197.19;;;2.63;65.86
51715;BME280;39115;59.332;18.034;2024-02-16T02:37:00;101191.03;;;2.63;66.14
51715;BME280;39115;59.332;18.034;2024-02-16T02:39:20;101185.78;;;2.63;66.26
51715;BME280;39115;59.332;18.034;2024-02-16T02:41:41;101177.91;;;2.63;66.21
51715;BME280;39115;59.332;18.034;2024-02-16T02:44:01;101172.66;;;2.63;66.34
51715;BME280;39115;59.332;18.034;2024-02-16T02:46:22;101172.59;;;2.64;66.29
51715;BME280;39115;59.332;18.034;2024-02-16T02:48:45;101156.88;;;2.63;66.20
51715;BME280;39115;59.332;18.034;2024-02-16T02:51:06;101157.75;;;2.63;66.30
51715;BME280;39115;59.332;18.034;2024-02-16T02:53:28;101155.13;;;2.63;66.30
51715;BME280;39115;59.332;18.034;2024-02-16T02:55:48;101146.34;;;2.63;66.17
51715;BME280;39115;59.332;18.034;2024-02-16T02:58:09;101146.34;;;2.63;66.18
51715;BME280;39115;59.332;18.034;2024-02-16T03:00:29;101144.59;;;2.63;66.19
51715;BME280;39115;59.332;18.034;2024-02-16T03:02:50;101145.44;;;2.64;66.26
51715;BME280;39115;59.332;18.034;2024-02-16T03:05:11;101139.25;;;2.65;66.35
51715;BME280;39115;59.332;18.034;2024-02-16T03:07:32;101134.09;;;2.63;66.34
51715;BME280;39115;59.332;18.034;2024-02-16T03:09:53;101130.53;;;2.64;66.27
51715;BME280;39115;59.332;18.034;2024-02-16T03:12:13;101121.78;;;2.64;66.15
51715;BME280;39115;59.332;18.034;2024-02-16T03:14:34;101120.03;;;2.64;66.22
51715;BME280;39115;59.332;18.034;2024-02-16T03:16:54;101114.75;;;2.64;66.35
51715;BME280;39115;59.332;18.034;2024-02-16T03:19:15;101113.88;;;2.64;66.36
51715;BME280;39115;59.332;18.034;2024-02-16T03:21:35;101115.59;;;2.65;66.32
51715;BME280;39115;59.332;18.034;2024-02-16T03:23:56;101110.34;;;2.65;66.31
51715;BME280;39115;59.332;18.034;2024-02-16T03:26:18;101106.00;;;2.64;66.23
51715;BME280;39115;59.332;18.034;2024-02-16T03:28:39;101105.16;;;2.63;66.27
51715;BME280;39115;59.332;18.034;2024-02-16T03:31:00;101097.19;;;2.65;66.11
51715;BME280;39115;59.332;18.034;2024-02-16T03:33:21;101095.41;;;2.65;66.36
51715;BME280;39115;59.332;18.034;2024-02-16T03:35:42;101091.94;;;2.65;66.32
51715;BME280;39115;59.332;18.034;2024-02-16T03:38:03;101089.31;;;2.65;66.17
51715;BME280;39115;59.332;18.034;2024-02-16T03:40:24;101086.69;;;2.65;66.43
51715;BME280;39115;59.332;18.034;2024-02-16T03:42:46;101086.69;;;2.65;66.29
51715;BME280;39115;59.332;18.034;2024-02-16T03:45:07;101086.59;;;2.66;66.39
51715;BME280;39115;59.332;18.034;2024-02-16T03:47:27;101083.13;;;2.66;66.29
51715;BME280;39115;59.332;18.034;2024-02-16T03:49:48;101073.53;;;2.65;66.35
51715;BME280;39115;59.332;18.034;2024-02-16T03:52:08;101071.69;;;2.67;66.27
51715;BME280;39115;59.332;18.034;2024-02-16T03:54:29;101068.19;;;2.66;66.15
51715;BME280;39115;59.332;18.034;2024-02-16T03:56:53;101055.06;;;2.66;66.39
51715;BME280;39115;59.332;18.034;2024-02-16T03:59:13;101054.22;;;2.66;66.08
51715;BME280;39115;59.332;18.034;2024-02-16T04:01:34;101047.16;;;2.66;66.39
51715;BME280;39115;59.332;18.034;2024-02-16T04:03:54;101044.63;;;2.65;66.40
51715;BME280;39115;59.332;18.034;2024-02-16T04:06:15;101041.91;;;2.66;66.86
51715;BME280;39115;59.332;18.034;2024-02-16T04:08:36;101028.75;;;2.66;66.35
51715;BME280;39115;59.332;18.034;2024-02-16T04:10:56;101034.91;;;2.67;66.08
51715;BME280;39115;59.332;18.034;2024-02-16T04:13:17;101025.31;;;2.66;66.30
51715;BME280;39115;59.332;18.034;2024-02-16T04:15:37;101013.88;;;2.67;66.29
51715;BME280;39115;59.332;18.034;2024-02-16T04:17:58;101011.22;;;2.67;66.33
51715;BME280;39115;59.332;18.034;2024-02-16T04:20:19;101002.44;;;2.68;66.31
51715;BME280;39115;59.332;18.034;2024-02-16T04:22:40;100996.31;;;2.67;66.13
51715;BME280;39115;59.332;18.034;2024-02-16T04:25:00;100991.97;;;2.66;66.34
51715;BME280;39115;59.332;18.034;2024-02-16T04:27:21;100987.56;;;2.67;66.14
51715;BME280;39115;59.332;18.034;2024-02-16T04:29:41;100977.91;;;2.67;66.13
51715;BME280;39115;59.332;18.034;2024-02-16T04:32:02;100973.50;;;2.68;66.14
51715;BME280;39115;59.332;18.034;2024-02-16T04:34:23;100964.75;;;2.67;66.40
51715;BME280;39115;59.332;18.034;2024-02-16T04:36:44;100970.00;;;2.67;66.32
51715;BME280;39115;59.332;18.034;2024-02-16T04:39:04;100961.19;;;2.68;66.35
51715;BME280;39115;59.332;18.034;2024-02-16T04:41:25;100963.00;;;2.68;66.16
51715;BME280;39115;59.332;18.034;2024-02-16T04:43:46;100955.94;;;2.68;66.23
51715;BME280;39115;59.332;18.034;2024-02-16T04:46:06;100955.03;;;2.69;66.21
51715;BME280;39115;59.332;18.034;2024-02-16T04:48:27;100943.63;;;2.69;66.21
51715;BME280;39115;59.332;18.034;2024-02-16T04:50:48;100931.44;;;2.68;66.31
51715;BME280;39115;59.332;18.034;2024-02-16T04:53:09;100939.25;;;2.69;66.27
51715;BME280;39115;59.332;18.034;2024-02-16T04:55:30;100925.22;;;2.69;66.17
51715;BME280;39115;59.332;18.034;2024-02-16T04:57:51;100929.56;;;2.70;66.29
51715;BME280;39115;59.332;18.034;2024-02-16T05:00:12;100923.47;;;2.69;66.34
51715;BME280;39115;59.332;18.034;2024-02-16T05:02:32;100913.06;;;2.68;66.05
51715;BME280;39115;59.332;18.034;2024-02-16T05:04:53;100912.97;;;2.69;66.17
51715;BME280;39115;59.332;18.034;2024-02-16T05:07:14;100903.28;;;2.70;66.17
51715;BME280;39115;59.332;18.034;2024-02-16T05:09:35;100888.38;;;2.71;66.32
51715;BME280;39115;59.332;18.034;2024-02-16T05:11:56;100885.75;;;2.71;66.32
51715;BME280;39115;59.332;18.034;2024-02-16T05:14:16;100874.38;;;2.70;66.22
51715;BME280;39115;59.332;18.034;2024-02-16T05:16:43;100881.31;;;2.71;66.19
51715;BME280;39115;59.332;18.034;2024-02-16T05:19:04;100877.78;;;2.72;66.41
51715;BME280;39115;59.332;18.034;2024-02-16T05:21:24;100869.97;;;2.71;66.32
51715;BME280;39115;59.332;18.034;2024-02-16T05:23:44;100860.19;;;2.73;66.13
51715;BME280;39115;59.332;18.034;2024-02-16T05:26:05;100851.47;;;2.72;66.34
51715;BME280;39115;59.332;18.034;2024-02-16T05:28:25;100849.78;;;2.71;66.38
51715;BME280;39115;59.332;18.034;2024-02-16T05:30:46;100840.13;;;2.72;66.55
51715;BME280;39115;59.332;18.034;2024-02-16T05:33:06;100850.56;;;2.73;66.33
51715;BME280;39115;59.332;18.034;2024-02-16T05:35:27;100836.53;;;2.73;66.39
51715;BME280;39115;59.332;18.034;2024-02-16T05:37:49;100840.13;;;2.72;66.36
51715;BME280;39115;59.332;18.034;2024-02-16T05:40:12;100841.81;;;2.73;66.26
51715;BME280;39115;59.332;18.034;2024-02-16T05:42:48;100834.78;;;2.73;66.23
51715;BME280;39115;59.332;18.034;2024-02-16T05:45:09;100825.19;;;2.72;66.33
51715;BME280;39115;59.332;18.034;2024-02-16T05:47:31;100820.78;;;2.73;66.41
51715;BME280;39115;59.332;18.034;2024-02-16T05:49:51;100804.94;;;2.74;66.25
51715;BME280;39115;59.332;18.034;2024-02-16T05:52:12;100799.75;;;2.73;66.21
51715;BME280;39115;59.332;18.034;2024-02-16T05:54:38;100788.28;;;2.74;66.29
51715;BME280;39115;59.332;18.034;2024-02-16T05:56:59;100791.78;;;2.74;66.50
51715;BME280;39115;59.332;18.034;2024-02-16T05:59:19;100778.66;;;2.74;66.31
51715;BME280;39115;59.332;18.034;2024-02-16T06:01:40;100790.88;;;2.75;66.31
51715;BME280;39115;59.332;18.034;2024-02-16T06:04:00;100782.09;;;2.75;66.40
51715;BME280;39115;59.332;18.034;2024-02-16T06:06:21;100781.19;;;2.76;66.04
51715;BME280;39115;59.332;18.034;2024-02-16T06:08:41;100775.09;;;2.75;66.26
51715;BME280;39115;59.332;18.034;2024-02-16T06:11:02;100768.03;;;2.76;66.39
51715;BME280;39115;59.332;18.034;2024-02-16T06:13:24;100763.63;;;2.76;66.36
51715;BME280;39115;59.332;18.034;2024-02-16T06:15:45;100759.22;;;2.77;66.35
51715;BME280;39115;59.332;18.034;2024-02-16T06:18:05;100760.97;;;2.76;66.26
51715;BME280;39115;59.332;18.034;2024-02-16T06:20:26;100753.03;;;2.78;66.31
51715;BME280;39115;59.332;18.034;2024-02-16T06:22:47;100744.28;;;2.77;66.35
51715;BME280;39115;59.332;18.034;2024-02-16T06:25:08;100737.25;;;2.78;66.43
51715;BME280;39115;59.332;18.034;2024-02-16T06:27:29;100734.63;;;2.78;66.29
51715;BME280;39115;59.332;18.034;2024-02-16T06:29:49;100732.00;;;2.78;66.13
51715;BME280;39115;59.332;18.034;2024-02-16T06:32:10;100722.31;;;2.78;66.25
51715;BME280;39115;59.332;18.034;2024-02-16T06:34:33;100719.69;;;2.78;66.37
51715;BME280;39115;59.332;18.034;2024-02-16T06:36:53;100718.84;;;2.78;66.40
51715;BME280;39115;59.332;18.034;2024-02-16T06:39:15;100711.81;;;2.78;66.28
51715;BME280;39115;59.332;18.034;2024-02-16T06:41:37;100715.31;;;2.79;66.21
51715;BME280;39115;59.332;18.034;2024-02-16T06:43:57;100717.84;;;2.80;66.28
51715;BME280;39115;59.332;18.034;2024-02-16T06:46:18;100711.75;;;2.80;66.31
51715;BME280;39115;59.332;18.034;2024-02-16T06:48:38;100702.91;;;2.81;66.29
51715;BME280;39115;59.332;18.034;2024-02-16T06:50:59;100697.63;;;2.81;66.31
51715;BME280;39115;59.332;18.034;2024-02-16T06:53:19;100696.72;;;2.82;66.33
51715;BME280;39115;59.332;18.034;2024-02-16T06:55:40;100687.97;;;2.81;66.41
51715;BME280;39115;59.332;18.034;2024-02-16T06:58:00;100687.13;;;2.81;66.18
51715;BME280;39115;59.332;18.034;2024-02-16T07:00:21;100691.44;;;2.82;66.23
51715;BME280;39115;59.332;18.034;2024-02-16T07:02:42;100684.44;;;2.82;66.28
51715;BME280;39115;59.332;18.034;2024-02-16T07:05:03;100670.41;;;2.82;66.33
51715;BME280;39115;59.332;18.034;2024-02-16T07:07:23;100675.69;;;2.82;66.22
51715;BME280;39115;59.332;18.034;2024-02-16T07:09:44;100659.75;;;2.85;66.39
51715;BME280;39115;59.332;18.034;2024-02-16T07:12:06;100655.41;;;2.84;66.20
51715;BME280;39115;59.332;18.034;2024-02-16T07:14:27;100658.88;;;2.84;66.43
51715;BME280;39115;59.332;18.034;2024-02-16T07:16:47;100653.63;;;2.84;66.28
51715;BME280;39115;59.332;18.034;2024-02-16T07:19:08;100641.34;;;2.85;66.03
51715;BME280;39115;59.332;18.034;2024-02-16T07:21:28;100644.78;;;2.85;66.23
51715;BME280;39115;59.332;18.034;2024-02-16T07:23:49;100640.41;;;2.86;66.34
51715;BME280;39115;59.332;18.034;2024-02-16T07:26:09;100633.44;;;2.85;66.19
51715;BME280;39115;59.332;18.034;2024-02-16T07:28:30;100617.56;;;2.87;66.40
51715;BME280;39115;59.332;18.034;2024-02-16T07:30:52;100616.75;;;2.86;66.38
51715;BME280;39115;59.332;18.034;2024-02-16T07:33:13;100624.63;;;2.86;66.26
51715;BME280;39115;59.332;18.034;2024-02-16T07:35:34;100609.69;;;2.87;66.26
51715;BME280;39115;59.332;18.034;2024-02-16T07:37:55;100618.44;;;2.87;66.32
51715;BME280;39115;59.332;18.034;2024-02-16T07:40:16;100610.56;;;2.87;66.13
51715;BME280;39115;59.332;18.034;2024-02-16T07:42:39;100605.28;;;2.87;66.59
51715;BME280;39115;59.332;18.034;2024-02-16T07:45:00;100606.97;;;2.88;66.33
51715;BME280;39115;59.332;18.034;2024-02-16T07:47:21;100596.44;;;2.88;66.25
51715;BME280;39115;59.332;18.034;2024-02-16T07:49:41;100599.06;;;2.88;66.31
51715;BME280;39115;59.332;18.034;2024-02-16T07:52:02;100590.25;;;2.89;66.25
51715;BME280;39115;59.332;18.034;2024-02-16T07:54:23;100592.88;;;2.89;66.28
51715;BME280;39115;59.332;18.034;2024-02-16T07:56:43;100593.75;;;2.90;66.09
51715;BME280;39115;59.332;18.034;2024-02-16T07:59:04;100591.94;;;2.90;66.40
51715;BME280;39115;59.332;18.034;2024-02-16T08:01:25;100596.28;;;2.91;66.24
51715;BME280;39115;59.332;18.034;2024-02-16T08:03:45;100586.59;;;2.92;66.29
51715;BME280;39115;59.332;18.034;2024-02-16T08:06:06;100583.13;;;2.91;66.42
51715;BME280;39115;59.332;18.034;2024-02-16T08:08:27;100581.34;;;2.92;66.19
51715;BME280;39115;59.332;18.034;2024-02-16T08:10:47;100582.19;;;2.92;66.28
51715;BME280;39115;59.332;18.034;2024-02-16T08:13:08;100572.50;;;2.93;66.27
51715;BME280;39115;59.332;18.034;2024-02-16T08:15:29;100577.78;;;2.93;66.33
51715;BME280;39115;59.332;18.034;2024-02-16T08:17:50;100582.09;;;2.94;66.35
51715;BME280;39115;59.332;18.034;2024-02-16T08:20:13;100574.22;;;2.94;66.34
51715;BME280;39115;59.332;18.034;2024-02-16T08:22:34;100575.06;;;2.94;66.28
51715;BME280;39115;59.332;18.034;2024-02-16T08:24:56;100578.53;;;2.95;66.41
51715;BME280;39115;59.332;18.034;2024-02-16T08:27:16;100558.38;;;2.95;66.16
51715;BME280;39115;59.332;18.034;2024-02-16T08:29:37;100566.25;;;2.95;66.23
51715;BME280;39115;59.332;18.034;2024-02-16T08:31:57;100552.25;;;2.95;66.37
51715;BME280;39115;59.332;18.034;2024-02-16T08:34:18;100553.94;;;2.96;66.28
51715;BME280;39115;59.332;18.034;2024-02-16T08:36:38;100549.50;;;2.96;66.37
51715;BME280;39115;59.332;18.034;2024-02-16T08:39:00;100549.50;;;2.96;66.21
51715;BME280;39115;59.332;18.034;2024-02-16T08:41:22;100543.31;;;2.97;66.31
51715;BME280;39115;59.332;18.034;2024-02-16T08:43:42;100540.69;;;2.97;66.32
51715;BME280;39115;59.332;18.034;2024-02-16T08:46:03;100540.69;;;2.97;66.36
51715;BME280;39115;59.332;18.034;2024-02-16T08:48:24;100538.94;;;2.98;66.40
51715;BME280;39115;59.332;18.034;2024-02-16T08:50:45;100530.16;;;2.97;66.10
51715;BME280;39115;59.332;18.034;2024-02-16T08:53:05;100529.25;;;2.98;66.18
51715;BME280;39115;59.332;18.034;2024-02-16T08:55:26;100528.31;;;2.99;66.12
51715;BME280;39115;59.332;18.034;2024-02-16T08:57:46;100530.94;;;2.99;66.49
51715;BME280;39115;59.332;18.034;2024-02-16T09:00:07;100537.88;;;3.00;66.19
51715;BME280;39115;59.332;18.034;2024-02-16T09:02:28;100529.13;;;3.00;66.21
51715;BME280;39115;59.332;18.034;2024-02-16T09:04:48;100524.75;;;3.00;66.33
51715;BME280;39115;59.332;18.034;2024-02-16T09:07:09;100528.19;;;3.01;66.35
51715;BME280;39115;59.332;18.034;2024-02-16T09:09:31;100529.91;;;3.02;66.27
51715;BME280;39115;59.332;18.034;2024-02-16T09:11:51;100523.81;;;3.02;66.33
51715;BME280;39115;59.332;18.034;2024-02-16T09:14:12;100525.50;;;3.03;66.22
51715;BME280;39115;59.332;18.034;2024-02-16T09:16:32;100525.41;;;3.04;66.32
51715;BME280;39115;59.332;18.034;2024-02-16T09:18:53;100517.63;;;3.03;66.42
51715;BME280;39115;59.332;18.034;2024-02-16T09:21:14;100511.38;;;3.04;66.36
51715;BME280;39115;59.332;18.034;2024-02-16T09:23:35;100514.88;;;3.04;66.31
51715;BME280;39115;59.332;18.034;2024-02-16T09:25:56;100516.66;;;3.04;66.31
51715;BME280;39115;59.332;18.034;2024-02-16T09:28:17;100510.47;;;3.05;66.32
51715;BME280;39115;59.332;18.034;2024-02-16T09:30:40;100518.28;;;3.06;66.37
51715;BME280;39115;59.332;18.034;2024-02-16T09:33:00;100511.22;;;3.07;66.36
51715;BME280;39115;59.332;18.034;2024-02-16T09:35:21;100507.66;;;3.08;66.17
51715;BME280;39115;59.332;18.034;2024-02-16T09:37:42;100505.97;;;3.07;66.25
51715;BME280;39115;59.332;18.034;2024-02-16T09:40:03;100505.84;;;3.08;66.40
51715;BME280;39115;59.332;18.034;2024-02-16T09:42:24;100502.41;;;3.08;66.39
51715;BME280;39115;59.332;18.034;2024-02-16T09:44:47;100499.66;;;3.09;66.32
51715;BME280;39115;59.332;18.034;2024-02-16T09:47:09;100500.53;;;3.10;66.40
51715;BME280;39115;59.332;18.034;2024-02-16T09:49:32;100498.72;;;3.10;66.39
51715;BME280;39115;59.332;18.034;2024-02-16T09:51:54;100504.00;;;3.10;66.41
51715;BME280;39115;59.332;18.034;2024-02-16T09:54:20;100503.16;;;3.10;66.20
51715;BME280;39115;59.332;18.034;2024-02-16T09:56:40;100483.81;;;3.11;66.21
51715;BME280;39115;59.332;18.034;2024-02-16T09:59:02;100498.63;;;3.12;66.37
51715;BME280;39115;59.332;18.034;2024-02-16T10:01:23;100480.22;;;3.12;66.32
51715;BME280;39115;59.332;18.034;2024-02-16T10:03:44;100490.66;;;3.13;66.31
51715;BME280;39115;59.332;18.034;2024-02-16T10:06:06;100465.19;;;3.14;66.49
51715;BME280;39115;59.332;18.034;2024-02-16T10:08:29;100476.56;;;3.14;66.35
51715;BME280;39115;59.332;18.034;2024-02-16T10:11:00;100474.78;;;3.15;66.25
51715;BME280;39115;59.332;18.034;2024-02-16T10:13:21;100480.03;;;3.15;66.40
51715;BME280;39115;59.332;18.034;2024-02-16T10:15:41;100461.63;;;3.15;66.55
51715;BME280;39115;59.332;18.034;2024-02-16T10:18:03;100460.78;;;3.14;66.22
51715;BME280;39115;59.332;18.034;2024-02-16T10:20:24;100466.88;;;3.15;66.42
51715;BME280;39115;59.332;18.034;2024-02-16T10:22:45;100469.41;;;3.16;66.33
51715;BME280;39115;59.332;18.034;2024-02-16T10:25:09;100463.22;;;3.17;66.36
51715;BME280;39115;59.332;18.034;2024-02-16T10:27:32;100475.44;;;3.19;66.46
51715;BME280;39115;59.332;18.034;2024-02-16T10:29:53;100450.06;;;3.17;66.33
51715;BME280;39115;59.332;18.034;2024-02-16T10:32:14;100454.41;;;3.19;66.39
51715;BME280;39115;59.332;18.034;2024-02-16T10:34:36;100450.81;;;3.20;65.97
51715;BME280;39115;59.332;18.034;2024-02-16T10:37:00;100455.34;;;3.17;66.32
51715;BME280;39115;59.332;18.034;2024-02-16T10:39:20;100455.16;;;3.21;66.35
51715;BME280;39115;59.332;18.034;2024-02-16T10:41:41;100450.72;;;3.21;66.38
51715;BME280;39115;59.332;18.034;2024-02-16T10:44:03;100448.97;;;3.22;66.53
51715;BME280;39115;59.332;18.034;2024-02-16T10:46:25;100453.25;;;3.23;66.13
51715;BME280;39115;59.332;18.034;2024-02-16T10:48:45;100450.63;;;3.23;66.25
51715;BME280;39115;59.332;18.034;2024-02-16T10:51:06;100453.19;;;3.24;66.37
51715;BME280;39115;59.332;18.034;2024-02-16T10:53:28;100457.56;;;3.24;66.39
51715;BME280;39115;59.332;18.034;2024-02-16T10:55:51;100454.94;;;3.24;66.42
51715;BME280;39115;59.332;18.034;2024-02-16T10:58:11;100454.00;;;3.25;66.57
51715;BME280;39115;59.332;18.034;2024-02-16T11:00:33;100450.44;;;3.26;66.26
51715;BME280;39115;59.332;18.034;2024-02-16T11:02:57;100439.91;;;3.26;66.31
51715;BME280;39115;59.332;18.034;2024-02-16T11:05:40;100449.50;;;3.27;66.21
51715;BME280;39115;59.332;18.034;2024-02-16T11:08:12;100444.25;;;3.27;66.37
51715;BME280;39115;59.332;18.034;2024-02-16T11:10:33;100444.25;;;3.27;66.46
51715;BME280;39115;59.332;18.034;2024-02-16T11:12:54;100443.31;;;3.28;66.47
51715;BME280;39115;59.332;18.034;2024-02-16T11:15:16;100431.91;;;3.27;66.54
51715;BME280;39115;59.332;18.034;2024-02-16T11:17:36;100425.72;;;3.28;66.34
51715;BME280;39115;59.332;18.034;2024-02-16T11:19:59;100426.59;;;3.29;66.31
51715;BME280;39115;59.332;18.034;2024-02-16T11:22:20;100423.97;;;3.29;66.42
51715;BME280;39115;59.332;18.034;2024-02-16T11:24:53;100426.47;;;3.30;66.00
51715;BME280;39115;59.332;18.034;2024-02-16T11:27:14;100426.47;;;3.30;66.30
51715;BME280;39115;59.332;18.034;2024-02-16T11:29:42;100424.69;;;3.31;66.42
51715;BME280;39115;59.332;18.034;2024-02-16T11:32:04;100422.06;;;3.31;66.20
51715;BME280;39115;59.332;18.034;2024-02-16T11:34:25;100425.53;;;3.31;66.28
51715;BME280;39115;59.332;18.034;2024-02-16T11:36:48;100423.75;;;3.32;66.46
51715;BME280;39115;59.332;18.034;2024-02-16T11:39:13;100407.13;;;3.31;66.23
51715;BME280;39115;59.332;18.034;2024-02-16T11:41:36;100421.97;;;3.32;66.32
51715;BME280;39115;59.332;18.034;2024-02-16T11:44:01;100422.81;;;3.33;66.53
51715;BME280;39115;59.332;18.034;2024-02-16T11:46:23;100421.03;;;3.34;66.25
51715;BME280;39115;59.332;18.034;2024-02-16T11:48:45;100416.63;;;3.34;66.53
51715;BME280;39115;59.332;18.034;2024-02-16T11:51:08;100410.41;;;3.35;66.17
51715;BME280;39115;59.332;18.034;2024-02-16T11:53:29;100406.91;;;3.35;66.34
51715;BME280;39115;59.332;18.034;2024-02-16T11:55:50;100405.97;;;3.36;66.37
51715;BME280;39115;59.332;18.034;2024-02-16T11:58:10;100396.31;;;3.36;66.49
51715;BME280;39115;59.332;18.034;2024-02-16T12:00:31;100392.81;;;3.36;66.26
51715;BME280;39115;59.332;18.034;2024-02-16T12:03:01;100392.75;;;3.37;66.35
51715;BME280;39115;59.332;18.034;2024-02-16T12:05:22;100393.56;;;3.38;66.14
51715;BME280;39115;59.332;18.034;2024-02-16T12:07:42;100396.22;;;3.38;66.39
51715;BME280;39115;59.332;18.034;2024-02-16T12:10:03;100393.56;;;3.38;66.16
51715;BME280;39115;59.332;18.034;2024-02-16T12:12:27;100390.13;;;3.37;66.36
51715;BME280;39115;59.332;18.034;2024-02-16T12:14:47;100389.19;;;3.38;66.24
51715;BME280;39115;59.332;18.034;2024-02-16T12:17:08;100382.00;;;3.40;66.09
51715;BME280;39115;59.332;18.034;2024-02-16T12:19:28;100389.06;;;3.40;66.41